Time;durP1;ratioP1;P1;durP2;ratioP2;P2;SDS_P1;SDS_P2;PMS_P1;PMS_P2;Temp;Humidity;BMP_temperature;BMP_pressure;BME280_temperature;BME280_humidity;BME280_pressure;Samples;Min_cycle;Max_cycle;Signal;HPM_P1;HPM_P2
2021/12/17 00:00:45;;;;;;;11.23;7.27;;;;;;;1.82;100.00;97991.25;4984248;28;20251;-83
2021/12/17 00:03:19;;;;;;;13.00;8.30;;;;;;;1.85;100.00;97996.31;4984688;28;20277;-81
2021/12/17 00:06:05;;;;;;;13.17;7.70;;;;;;;1.90;100.00;97994.91;4991660;28;20208;-81
2021/12/17 00:08:32;;;;;;;11.87;7.97;;;;;;;1.96;100.00;97998.03;4977887;28;20227;-82
2021/12/17 00:10:59;;;;;;;12.57;8.30;;;;;;;1.95;100.00;97991.84;4972531;28;20230;-82
2021/12/17 00:13:27;;;;;;;13.07;8.50;;;;;;;2.00;100.00;98002.09;4990423;28;20296;-81
2021/12/17 00:15:55;;;;;;;11.50;7.33;;;;;;;1.99;100.00;97995.91;4988578;28;20216;-81
2021/12/17 00:18:28;;;;;;;12.03;7.93;;;;;;;2.03;100.00;97997.34;4971030;28;20275;-82
2021/12/17 00:48:37;;;;;;;11.13;7.73;;;;;;;1.84;100.00;98002.63;4982738;28;20208;-82
2021/12/17 00:53:51;;;;;;;14.77;8.53;;;;;;;1.86;100.00;98013.97;4946539;28;20220;-81
2021/12/17 00:56:19;;;;;;;13.20;8.03;;;;;;;1.85;100.00;98009.63;4986282;28;20208;-81
2021/12/17 00:58:47;;;;;;;11.43;7.70;;;;;;;1.85;100.00;98013.13;4970756;28;20222;-81
2021/12/17 01:01:16;;;;;;;14.03;8.70;;;;;;;1.81;100.00;97997.53;4977535;28;20250;-82
2021/12/17 01:03:46;;;;;;;13.40;8.37;;;;;;;1.84;100.00;98005.28;4964886;28;20211;-82
2021/12/17 01:06:13;;;;;;;12.63;8.23;;;;;;;1.79;100.00;98007.50;4986673;28;20208;-81
2021/12/17 01:08:41;;;;;;;13.93;8.43;;;;;;;1.79;100.00;98015.47;4996431;28;20197;-83
2021/12/17 01:11:11;;;;;;;13.57;8.27;;;;;;;1.73;100.00;98000.03;4987820;28;20341;-81
2021/12/17 01:13:59;;;;;;;12.97;8.33;;;;;;;1.75;100.00;98006.94;4986081;28;20238;-81
2021/12/17 01:16:32;;;;;;;13.20;8.50;;;;;;;1.74;100.00;98007.06;4991454;28;20313;-81
2021/12/17 01:19:17;;;;;;;11.80;7.87;;;;;;;1.75;100.00;97992.78;4988047;28;20207;-80
2021/12/17 01:22:26;;;;;;;11.17;7.77;;;;;;;1.72;100.00;97985.03;4990058;28;20235;-81
2021/12/17 01:25:15;;;;;;;12.00;7.37;;;;;;;1.72;100.00;97996.53;4967361;28;20207;-81
2021/12/17 01:37:36;;;;;;;12.97;7.63;;;;;;;1.81;100.00;97989.56;4989444;28;20218;-82
2021/12/17 01:42:32;;;;;;;11.20;7.50;;;;;;;1.80;100.00;97998.53;4963137;28;20253;-81
2021/12/17 01:44:59;;;;;;;13.00;7.87;;;;;;;1.79;100.00;97988.84;4987148;28;20259;-80
2021/12/17 01:47:26;;;;;;;12.17;7.53;;;;;;;1.80;100.00;97977.22;4989617;28;20203;-81
2021/12/17 01:55:49;;;;;;;12.57;7.77;;;;;;;1.79;100.00;97967.53;4945164;28;20203;-81
2021/12/17 02:01:06;;;;;;;12.53;7.70;;;;;;;1.76;100.00;97959.84;4984560;28;20210;-81
2021/12/17 02:03:33;;;;;;;12.90;7.87;;;;;;;1.74;100.00;97962.63;4983608;28;20212;-81
2021/12/17 02:06:02;;;;;;;11.40;7.10;;;;;;;1.80;100.00;97971.88;4995913;28;20290;-81
2021/12/17 02:08:31;;;;;;;11.37;7.43;;;;;;;1.80;100.00;97967.41;4971200;28;20222;-81
2021/12/17 02:30:47;;;;;;;12.93;7.40;;;;;;;1.75;100.00;97945.69;4984314;28;20241;-83
2021/12/17 02:33:15;;;;;;;11.80;7.57;;;;;;;1.82;100.00;97944.16;4982333;28;20212;-81
2021/12/17 02:35:44;;;;;;;10.20;7.27;;;;;;;1.85;100.00;97945.69;4971808;28;20330;-81
2021/12/17 02:38:14;;;;;;;12.27;7.60;;;;;;;1.81;100.00;97936.28;4992008;28;20302;-81
2021/12/17 02:47:09;;;;;;;11.93;7.80;;;;;;;1.66;100.00;97948.31;4978948;28;20214;-81
2021/12/17 02:49:38;;;;;;;11.50;7.70;;;;;;;1.58;100.00;97934.84;4983956;28;20219;-82
2021/12/17 02:52:06;;;;;;;11.97;8.10;;;;;;;1.61;100.00;97947.88;4989326;28;20426;-81
2021/12/17 02:54:37;;;;;;;11.23;7.40;;;;;;;1.65;100.00;97946.63;4971686;28;20209;-82
2021/12/17 02:57:07;;;;;;;11.30;7.43;;;;;;;1.67;100.00;97944.66;4988157;28;20602;-82
2021/12/17 02:59:36;;;;;;;12.03;7.27;;;;;;;1.66;100.00;97954.47;4995862;28;20275;-82
2021/12/17 03:02:05;;;;;;;11.60;7.40;;;;;;;1.59;100.00;97955.16;4971997;28;20208;-81
2021/12/17 03:04:36;;;;;;;11.07;7.47;;;;;;;1.62;100.00;97957.53;4966441;28;20236;-81
2021/12/17 03:07:04;;;;;;;13.00;7.67;;;;;;;1.59;100.00;97953.34;4971143;28;20218;-82
2021/12/17 03:09:46;;;;;;;13.00;8.07;;;;;;;1.63;100.00;97948.56;4992436;28;20286;-82
2021/12/17 03:12:20;;;;;;;12.07;7.83;;;;;;;1.64;100.00;97963.56;4989408;28;20208;-81
2021/12/17 03:14:54;;;;;;;14.37;8.17;;;;;;;1.59;100.00;97950.69;4967395;28;20208;-82
2021/12/17 03:17:39;;;;;;;13.57;8.20;;;;;;;1.62;100.00;97952.22;4974834;28;20257;-81
2021/12/17 03:25:36;;;;;;;12.73;8.17;;;;;;;1.56;100.00;97945.63;4982961;28;20220;-81
2021/12/17 03:28:05;;;;;;;12.97;8.90;;;;;;;1.56;100.00;97928.78;4974975;28;20279;-81
2021/12/17 03:30:32;;;;;;;12.63;7.97;;;;;;;1.57;100.00;97927.81;4970407;28;20295;-81
2021/12/17 03:32:59;;;;;;;12.03;7.50;;;;;;;1.61;100.00;97932.75;4978372;28;20208;-81
2021/12/17 03:35:27;;;;;;;11.83;8.07;;;;;;;1.57;100.00;97933.16;4991793;28;20200;-83
2021/12/17 03:37:54;;;;;;;13.03;8.00;;;;;;;1.57;100.00;97930.47;4970490;28;20211;-80
2021/12/17 03:40:22;;;;;;;12.67;8.00;;;;;;;1.63;100.00;97938.75;4988869;28;20219;-81
2021/12/17 03:42:51;;;;;;;13.57;8.40;;;;;;;1.55;100.00;97927.94;4974645;28;20212;-81
2021/12/17 03:45:22;;;;;;;12.30;7.80;;;;;;;1.58;100.00;97940.16;4972999;28;20237;-81
2021/12/17 03:47:57;;;;;;;10.70;7.50;;;;;;;1.53;100.00;97925.41;4969922;28;20201;-81
2021/12/17 03:50:25;;;;;;;13.00;8.33;;;;;;;1.55;100.00;97929.75;4975617;28;20278;-82
2021/12/17 03:52:53;;;;;;;13.47;8.67;;;;;;;1.53;100.00;97925.41;4989190;28;20204;-81
2021/12/17 03:55:25;;;;;;;13.13;7.80;;;;;;;1.50;100.00;97920.38;4970838;28;20295;-81
2021/12/17 03:57:53;;;;;;;12.23;8.00;;;;;;;1.48;100.00;97913.50;4966984;28;20215;-81
2021/12/17 04:00:20;;;;;;;11.63;8.20;;;;;;;1.50;100.00;97923.03;4967755;28;20209;-81
2021/12/17 04:02:54;;;;;;;12.30;8.00;;;;;;;1.50;100.00;97919.53;4984127;28;20212;-81
2021/12/17 04:05:41;;;;;;;11.73;7.97;;;;;;;1.49;100.00;97910.72;4986552;28;20269;-81
2021/12/17 04:08:29;;;;;;;12.37;7.93;;;;;;;1.47;100.00;97910.00;4983828;28;20196;-80
2021/12/17 04:11:34;;;;;;;11.57;7.47;;;;;;;1.48;100.00;97919.66;4968511;28;20232;-82
2021/12/17 04:14:11;;;;;;;11.13;8.07;;;;;;;1.55;100.00;97919.13;4982059;28;20326;-81
2021/12/17 04:16:50;;;;;;;12.73;7.83;;;;;;;1.58;100.00;97919.69;4987277;28;20294;-82
2021/12/17 04:19:19;;;;;;;12.23;8.00;;;;;;;1.61;100.00;97913.28;4967205;28;20223;-81
2021/12/17 04:21:47;;;;;;;12.60;8.33;;;;;;;1.66;100.00;97911.03;4969704;28;20206;-81
2021/12/17 04:24:14;;;;;;;14.03;7.93;;;;;;;1.73;100.00;97921.00;4973913;28;20213;-81
2021/12/17 04:26:43;;;;;;;14.10;8.10;;;;;;;1.72;100.00;97913.13;4988477;28;20216;-81
2021/12/17 04:29:18;;;;;;;13.43;8.80;;;;;;;1.77;100.00;97921.56;4964692;28;20200;-81
2021/12/17 04:31:51;;;;;;;12.53;8.13;;;;;;;1.81;100.00;97926.47;4979528;28;20221;-81
2021/12/17 04:34:21;;;;;;;9.90;7.03;;;;;;;1.75;100.00;97919.03;4976935;28;20271;-82
2021/12/17 04:36:51;;;;;;;10.50;7.13;;;;;;;1.72;100.00;97931.78;4986215;28;20287;-81
2021/12/17 04:39:26;;;;;;;12.23;8.10;;;;;;;1.73;100.00;97931.66;4988670;28;20220;-82
2021/12/17 04:41:56;;;;;;;12.53;8.17;;;;;;;1.73;100.00;97933.47;4980181;28;20202;-83
2021/12/17 04:44:27;;;;;;;13.77;9.17;;;;;;;1.71;100.00;97935.41;4986770;28;20275;-81
2021/12/17 04:57:12;;;;;;;12.50;8.33;;;;;;;1.67;100.00;97928.69;4962818;28;20252;-81
2021/12/17 04:58:09;;;;;;;9.50;6.60;;;;;;;1.75;100.00;97937.69;4973129;28;20215;-82
2021/12/17 05:00:37;;;;;;;11.30;7.53;;;;;;;1.71;100.00;97930.94;4969770;28;20200;-82
2021/12/17 05:03:18;;;;;;;10.43;7.20;;;;;;;1.77;100.00;97948.22;4982603;28;20233;-81
2021/12/17 05:05:50;;;;;;;11.53;7.83;;;;;;;1.78;100.00;97953.41;4986814;28;20207;-82
2021/12/17 05:08:24;;;;;;;12.67;7.83;;;;;;;1.71;100.00;97952.25;4974095;28;20335;-81
2021/12/17 05:11:16;;;;;;;12.07;7.83;;;;;;;1.72;100.00;97950.41;4984101;28;20309;-81
2021/12/17 05:19:24;;;;;;;11.73;7.47;;;;;;;1.51;100.00;97959.34;4973149;28;20227;-82
2021/12/17 05:21:52;;;;;;;12.73;7.67;;;;;;;1.55;100.00;97956.38;4972580;28;20203;-81
2021/12/17 05:24:20;;;;;;;12.97;8.50;;;;;;;1.53;100.00;97962.69;4986589;28;20212;-81
2021/12/17 05:26:48;;;;;;;13.73;9.00;;;;;;;1.53;100.00;97964.53;4970859;28;20206;-81
2021/12/17 05:29:15;;;;;;;12.97;8.07;;;;;;;1.63;100.00;97973.38;4990783;28;20211;-81
2021/12/17 05:31:44;;;;;;;13.37;8.63;;;;;;;1.65;100.00;97975.91;4986548;28;20220;-81
2021/12/17 05:34:13;;;;;;;12.43;8.40;;;;;;;1.62;100.00;97973.50;4974787;28;20266;-81
2021/12/17 05:36:48;;;;;;;12.87;8.43;;;;;;;1.67;100.00;97981.94;4987054;28;20214;-81
2021/12/17 05:39:22;;;;;;;15.23;10.03;;;;;;;1.62;100.00;97986.81;4973093;28;20250;-82
2021/12/17 05:41:49;;;;;;;15.63;9.93;;;;;;;1.59;100.00;97985.28;4979549;28;20201;-81
2021/12/17 05:44:32;;;;;;;13.07;8.60;;;;;;;1.65;100.00;97991.88;4985672;28;20243;-81
2021/12/17 05:47:00;;;;;;;13.20;8.20;;;;;;;1.64;100.00;98003.50;4979227;28;20207;-81
2021/12/17 05:49:30;;;;;;;12.80;8.60;;;;;;;1.62;100.00;97997.47;4968653;28;20228;-83
2021/12/17 05:52:01;;;;;;;12.97;8.87;;;;;;;1.66;100.00;98002.41;4967806;28;20224;-82
2021/12/17 05:54:31;;;;;;;12.67;8.53;;;;;;;1.69;100.00;98012.81;4982639;28;20205;-81
2021/12/17 05:57:00;;;;;;;12.23;7.80;;;;;;;1.70;100.00;98018.97;4989288;28;20232;-81
2021/12/17 05:59:34;;;;;;;13.30;8.53;;;;;;;1.72;100.00;98032.97;4958538;28;20207;-82
2021/12/17 06:02:04;;;;;;;15.03;8.30;;;;;;;1.68;100.00;98016.44;4976877;28;20205;-82
2021/12/17 06:04:32;;;;;;;12.83;8.27;;;;;;;1.61;100.00;98011.78;4982142;28;20283;-81
2021/12/17 06:07:04;;;;;;;15.03;9.27;;;;;;;1.59;100.00;98022.56;4984487;28;20219;-81
2021/12/17 06:09:33;;;;;;;15.97;9.17;;;;;;;1.58;100.00;98028.03;4982465;28;20205;-81
2021/12/17 06:12:05;;;;;;;16.30;9.90;;;;;;;1.57;100.00;98032.50;4978031;28;20281;-81
2021/12/17 06:14:33;;;;;;;16.17;9.20;;;;;;;1.59;100.00;98040.34;4978778;28;20217;-82
2021/12/17 06:17:00;;;;;;;14.47;9.17;;;;;;;1.57;100.00;98039.63;4982451;28;20213;-81
2021/12/17 06:19:40;;;;;;;14.60;9.43;;;;;;;1.62;100.00;98050.72;4978801;28;20216;-82
2021/12/17 06:22:11;;;;;;;16.67;9.47;;;;;;;1.62;100.00;98043.59;4974623;28;20222;-81
2021/12/17 06:24:44;;;;;;;17.97;10.70;;;;;;;1.64;100.00;98043.44;4978148;28;20203;-81
2021/12/17 06:27:12;;;;;;;18.53;10.40;;;;;;;1.69;100.00;98050.09;4976336;28;20215;-81
2021/12/17 06:29:39;;;;;;;14.80;9.70;;;;;;;1.71;100.00;98047.25;4973940;28;20210;-81
2021/12/17 06:32:11;;;;;;;17.33;10.47;;;;;;;1.73;100.00;98056.81;4988022;28;20231;-81
2021/12/17 06:34:39;;;;;;;15.53;10.07;;;;;;;1.76;100.00;98063.72;4978455;28;20212;-82
2021/12/17 06:37:08;;;;;;;16.17;10.33;;;;;;;1.71;100.00;98061.44;4987106;28;20216;-81
2021/12/17 06:39:35;;;;;;;15.47;10.23;;;;;;;1.74;100.00;98063.84;4967353;28;20304;-82
2021/12/17 06:42:05;;;;;;;17.07;10.00;;;;;;;1.75;100.00;98067.34;4985693;28;20339;-80
2021/12/17 06:44:33;;;;;;;16.33;9.97;;;;;;;1.74;100.00;98065.66;4985480;28;20228;-81
2021/12/17 06:47:04;;;;;;;16.47;9.87;;;;;;;1.73;100.00;98082.59;4972392;28;20198;-82
2021/12/17 06:49:48;;;;;;;15.03;9.73;;;;;;;1.70;100.00;98077.56;4973478;28;20243;-82
2021/12/17 06:56:09;;;;;;;16.10;10.53;;;;;;;1.72;100.00;98092.41;4964609;28;20260;-82
2021/12/17 06:59:03;;;;;;;13.97;9.43;;;;;;;1.72;100.00;98092.41;4963311;28;20207;-81
2021/12/17 07:10:45;;;;;;;17.43;10.27;;;;;;;1.77;100.00;98090.22;4983787;28;20212;-81
2021/12/17 07:21:36;;;;;;;15.70;10.37;;;;;;;1.77;100.00;98092.03;4989427;28;20208;-84
2021/12/17 07:33:08;;;;;;;16.20;10.13;;;;;;;1.66;100.00;98092.94;4968664;28;20261;-82
2021/12/17 07:35:52;;;;;;;18.30;11.00;;;;;;;1.67;100.00;98088.47;4986366;28;20298;-81
2021/12/17 07:41:28;;;;;;;18.20;11.10;;;;;;;1.66;100.00;98073.47;4969609;28;20205;-81
2021/12/17 07:44:03;;;;;;;17.83;10.97;;;;;;;1.68;100.00;98079.50;4967961;28;20210;-81
2021/12/17 07:46:39;;;;;;;16.43;10.30;;;;;;;1.71;100.00;98076.56;4957279;28;20235;-81
2021/12/17 07:49:07;;;;;;;18.37;10.97;;;;;;;1.70;100.00;98080.22;4955696;28;20201;-81
2021/12/17 07:51:36;;;;;;;16.43;10.57;;;;;;;1.76;100.00;98085.84;4949064;28;20320;-81
2021/12/17 07:54:05;;;;;;;18.50;11.13;;;;;;;1.78;100.00;98099.03;4959682;28;20239;-82
2021/12/17 07:56:37;;;;;;;18.10;10.67;;;;;;;1.77;100.00;98092.03;4968255;28;20212;-82
2021/12/17 07:59:13;;;;;;;16.97;10.00;;;;;;;1.79;100.00;98088.22;4961306;28;20297;-82
2021/12/17 08:01:41;;;;;;;17.30;9.67;;;;;;;1.74;100.00;98078.97;4966986;28;20222;-81
2021/12/17 08:04:11;;;;;;;16.73;10.87;;;;;;;1.83;100.00;98079.00;4960364;28;20205;-81
2021/12/17 08:06:58;;;;;;;18.00;10.47;;;;;;;1.76;100.00;98077.88;4950550;28;20213;-81
2021/12/17 08:09:29;;;;;;;20.13;11.13;;;;;;;1.86;100.00;98072.59;4961700;28;20210;-82
2021/12/17 08:11:58;;;;;;;18.07;11.07;;;;;;;1.90;100.00;98055.34;4966125;28;20384;-82
2021/12/17 08:14:38;;;;;;;18.60;11.07;;;;;;;1.95;100.00;98063.78;4961419;28;20213;-80
2021/12/17 08:17:27;;;;;;;17.37;9.93;;;;;;;2.02;100.00;98064.94;4964687;28;20209;-81
2021/12/17 08:25:30;;;;;;;16.30;9.83;;;;;;;2.13;100.00;98086.13;4959667;28;20206;-81
2021/12/17 08:28:06;;;;;;;17.97;10.57;;;;;;;2.14;100.00;98082.47;4962745;28;20217;-81
2021/12/17 08:30:39;;;;;;;19.73;11.43;;;;;;;2.23;100.00;98088.81;4946474;29;20210;-81
2021/12/17 08:33:20;;;;;;;16.90;10.03;;;;;;;2.25;100.00;98090.38;4953372;28;20261;-82
2021/12/17 08:35:50;;;;;;;17.40;10.57;;;;;;;2.23;100.00;98087.00;4959249;28;20210;-81
2021/12/17 08:38:37;;;;;;;17.50;11.00;;;;;;;2.28;100.00;98089.28;4944061;28;20355;-81
2021/12/17 08:41:26;;;;;;;15.53;10.00;;;;;;;2.32;100.00;98095.16;4964206;28;20198;-80
2021/12/17 08:43:53;;;;;;;16.63;10.80;;;;;;;2.36;100.00;98100.09;4948027;28;20214;-82
2021/12/17 08:46:21;;;;;;;15.47;9.63;;;;;;;2.44;100.00;98100.25;4965144;28;20238;-81
2021/12/17 08:49:14;;;;;;;14.70;9.10;;;;;;;2.48;100.00;98115.00;4968687;28;20212;-82
2021/12/17 08:51:51;;;;;;;13.17;8.77;;;;;;;2.48;100.00;98108.81;4967233;28;20233;-81
2021/12/17 08:54:19;;;;;;;14.30;8.60;;;;;;;2.51;100.00;98111.22;4981313;28;20229;-81
2021/12/17 08:56:49;;;;;;;15.00;8.97;;;;;;;2.50;100.00;98109.53;4986385;28;20216;-82
2021/12/17 08:59:21;;;;;;;15.90;9.63;;;;;;;2.48;100.00;98100.81;4978886;28;20231;-82
2021/12/17 09:02:20;;;;;;;16.60;10.00;;;;;;;2.49;100.00;98097.16;4963917;28;20271;-81
2021/12/17 09:04:56;;;;;;;15.57;9.77;;;;;;;2.49;100.00;98097.16;4966247;28;20212;-81
2021/12/17 09:07:25;;;;;;;16.13;9.20;;;;;;;2.52;100.00;98097.75;4977526;28;20215;-82
2021/12/17 09:10:05;;;;;;;15.93;10.00;;;;;;;2.57;100.00;98094.66;4982480;28;20274;-82
2021/12/17 09:12:36;;;;;;;15.83;9.30;;;;;;;2.54;100.00;98089.63;4962989;28;20228;-82
2021/12/17 09:15:03;;;;;;;15.57;9.60;;;;;;;2.49;100.00;98091.84;4981706;28;20218;-82
2021/12/17 09:17:49;;;;;;;15.80;10.37;;;;;;;2.52;100.00;98096.91;4957225;28;20236;-82
2021/12/17 09:20:18;;;;;;;14.93;9.40;;;;;;;2.60;100.00;98092.56;4964855;28;20219;-82
2021/12/17 09:22:47;;;;;;;15.77;9.87;;;;;;;2.62;100.00;98105.78;4967590;28;20209;-81
2021/12/17 09:25:18;;;;;;;16.77;10.40;;;;;;;2.49;100.00;98114.00;4986612;28;20205;-81
2021/12/17 09:27:58;;;;;;;15.63;8.93;;;;;;;2.45;100.00;98117.94;4984055;28;20211;-81
2021/12/17 09:31:00;;;;;;;15.67;9.43;;;;;;;2.45;100.00;98117.09;4953615;28;20216;-81
2021/12/17 09:33:27;;;;;;;17.27;9.87;;;;;;;2.53;100.00;98114.59;4978067;28;20221;-82
2021/12/17 09:35:54;;;;;;;13.87;9.07;;;;;;;2.58;100.00;98121.19;4954498;28;20198;-81
2021/12/17 09:38:23;;;;;;;15.50;9.57;;;;;;;2.56;100.00;98117.81;4977623;28;20193;-81
2021/12/17 09:40:51;;;;;;;14.67;9.47;;;;;;;2.64;100.00;98125.97;4978294;28;20228;-81
2021/12/17 09:43:18;;;;;;;16.73;9.30;;;;;;;2.69;100.00;98120.25;4983062;28;20215;-82
2021/12/17 09:45:45;;;;;;;16.73;9.30;;;;;;;2.75;100.00;98126.84;4954084;28;20304;-81
2021/12/17 09:48:14;;;;;;;16.80;9.90;;;;;;;2.79;100.00;98125.59;4967650;28;20212;-82
2021/12/17 09:50:41;;;;;;;15.77;9.97;;;;;;;2.79;100.00;98126.44;4985598;28;20223;-82
2021/12/17 09:53:08;;;;;;;17.67;10.07;;;;;;;2.88;100.00;98135.44;4979907;28;20233;-82
2021/12/17 09:55:37;;;;;;;14.77;9.87;;;;;;;2.88;100.00;98132.75;4976806;28;20260;-82
2021/12/17 09:58:05;;;;;;;16.23;10.50;;;;;;;2.90;100.00;98139.63;4963127;28;20292;-82
2021/12/17 10:00:32;;;;;;;18.93;11.07;;;;;;;2.92;100.00;98139.50;4970791;28;20200;-82
2021/12/17 10:02:59;;;;;;;19.33;10.10;;;;;;;2.88;100.00;98138.09;4965521;28;20208;-82
2021/12/17 10:05:31;;;;;;;16.93;10.23;;;;;;;2.85;100.00;98149.88;4973122;28;20208;-83
2021/12/17 10:08:00;;;;;;;19.50;11.50;;;;;;;2.84;100.00;98144.69;4973568;28;20219;-82
2021/12/17 10:10:36;;;;;;;22.13;11.50;;;;;;;2.81;100.00;98132.44;4967676;28;20205;-83
2021/12/17 10:13:09;;;;;;;19.70;11.67;;;;;;;2.82;100.00;98144.81;4967689;28;20271;-82
2021/12/17 10:15:38;;;;;;;18.00;11.33;;;;;;;2.76;100.00;98140.03;4975694;28;20209;-82
2021/12/17 10:18:05;;;;;;;16.63;10.57;;;;;;;2.83;100.00;98138.50;4963600;28;20201;-83
2021/12/17 10:20:35;;;;;;;18.20;10.90;;;;;;;2.79;100.00;98137.09;4969318;28;20465;-82
2021/12/17 10:23:05;;;;;;;19.40;11.67;;;;;;;2.80;100.00;98135.28;4967233;28;20213;-82
2021/12/17 10:25:34;;;;;;;17.53;11.23;;;;;;;2.86;100.00;98146.25;4976451;28;20201;-82
2021/12/17 10:28:04;;;;;;;18.73;10.63;;;;;;;2.89;100.00;98143.28;4965763;28;20296;-82
2021/12/17 10:30:35;;;;;;;18.53;10.90;;;;;;;2.94;100.00;98145.53;4980762;28;20308;-82
2021/12/17 10:33:06;;;;;;;18.37;10.67;;;;;;;2.94;100.00;98150.88;4968090;28;20320;-82
2021/12/17 10:35:35;;;;;;;16.93;10.97;;;;;;;2.94;100.00;98150.88;4976161;28;20232;-82
2021/12/17 10:38:05;;;;;;;16.93;10.53;;;;;;;2.93;100.00;98155.38;4960263;28;20193;-82
2021/12/17 10:40:36;;;;;;;17.53;10.93;;;;;;;2.91;100.00;98151.16;4977468;28;20216;-82
2021/12/17 10:43:17;;;;;;;16.70;10.57;;;;;;;2.93;100.00;98147.38;4983766;28;20236;-81
2021/12/17 10:45:59;;;;;;;17.10;10.80;;;;;;;2.96;100.00;98144.44;4962461;28;20292;-82
2021/12/17 10:48:32;;;;;;;19.27;11.00;;;;;;;2.99;100.00;98149.47;4972585;28;20213;-82
2021/12/17 10:51:16;;;;;;;18.90;9.90;;;;;;;2.97;100.00;98134.59;4989020;28;20197;-81
2021/12/17 10:53:54;;;;;;;17.53;10.73;;;;;;;3.06;100.00;98143.59;4962125;28;20249;-82
2021/12/17 10:56:22;;;;;;;17.57;10.47;;;;;;;3.07;100.00;98139.91;4968195;28;20216;-81
2021/12/17 10:58:58;;;;;;;18.47;11.13;;;;;;;3.09;100.00;98128.13;4969829;28;20236;-82
2021/12/17 11:01:37;;;;;;;19.33;10.80;;;;;;;3.15;100.00;98137.44;4962182;28;20213;-82
2021/12/17 11:04:10;;;;;;;16.33;10.03;;;;;;;3.14;100.00;98125.06;4984507;28;20271;-82
2021/12/17 11:06:53;;;;;;;17.50;10.93;;;;;;;3.11;100.00;98130.66;4985642;28;20235;-82
2021/12/17 11:09:40;;;;;;;16.50;10.17;;;;;;;3.04;100.00;98131.22;4969926;28;20216;-81
2021/12/17 11:12:28;;;;;;;17.00;10.40;;;;;;;3.02;100.00;98132.34;4988963;28;20227;-83
2021/12/17 11:15:07;;;;;;;16.70;10.07;;;;;;;2.99;100.00;98130.78;4978208;28;20240;-82
2021/12/17 11:17:36;;;;;;;17.03;9.63;;;;;;;3.00;100.00;98131.63;4969803;28;20300;-83
2021/12/17 11:20:08;;;;;;;18.90;11.17;;;;;;;3.00;100.00;98124.47;4974660;28;20228;-81
2021/12/17 11:22:36;;;;;;;18.30;10.43;;;;;;;3.06;100.00;98131.09;4986860;28;20220;-82
2021/12/17 11:25:05;;;;;;;18.70;10.37;;;;;;;3.07;100.00;98115.91;4969056;28;20209;-82
2021/12/17 11:27:33;;;;;;;16.83;10.40;;;;;;;3.12;100.00;98121.69;4983225;28;20237;-81
2021/12/17 11:30:01;;;;;;;14.50;9.23;;;;;;;3.11;100.00;98114.66;4974539;28;20224;-83
2021/12/17 11:32:28;;;;;;;15.70;10.10;;;;;;;3.12;100.00;98111.00;4963172;28;20553;-83
2021/12/17 11:34:58;;;;;;;15.17;9.13;;;;;;;3.17;100.00;98106.91;4978497;28;20233;-82
2021/12/17 11:37:26;;;;;;;23.70;9.93;;;;;;;3.18;100.00;98089.91;4987767;28;20204;-82
2021/12/17 11:39:58;;;;;;;21.50;10.90;;;;;;;3.21;100.00;98094.13;4962314;28;20215;-81
2021/12/17 11:42:53;;;;;;;22.60;10.20;;;;;;;3.13;100.00;98091.34;4975731;28;20209;-81
2021/12/17 11:45:25;;;;;;;18.80;10.97;;;;;;;3.14;100.00;98098.38;4973557;28;20253;-81
2021/12/17 11:47:57;;;;;;;21.93;11.20;;;;;;;3.44;100.00;98090.16;4987287;28;20256;-81
2021/12/17 11:50:25;;;;;;;18.23;10.30;;;;;;;3.59;100.00;98088.72;4964839;28;20287;-81
2021/12/17 11:52:54;;;;;;;18.13;9.67;;;;;;;3.30;100.00;98087.94;4986726;28;20236;-82
2021/12/17 11:55:27;;;;;;;18.67;10.33;;;;;;;3.12;100.00;98095.00;4975584;28;20264;-81
2021/12/17 11:57:57;;;;;;;22.97;10.60;;;;;;;3.01;100.00;98096.81;4969093;28;20217;-81
2021/12/17 12:00:26;;;;;;;17.00;10.07;;;;;;;3.02;100.00;98087.81;4963706;28;20229;-81
2021/12/17 12:02:54;;;;;;;18.47;10.00;;;;;;;3.04;100.00;98079.69;4987563;28;20236;-81
2021/12/17 12:05:37;;;;;;;16.63;9.50;;;;;;;2.93;100.00;98075.31;4954362;28;20217;-81
2021/12/17 12:08:31;;;;;;;20.33;10.00;;;;;;;2.97;100.00;98075.91;4963219;28;20249;-81
2021/12/17 12:11:11;;;;;;;17.60;10.47;;;;;;;2.98;100.00;98067.72;4983912;28;20223;-82
2021/12/17 12:13:40;;;;;;;24.43;9.67;;;;;;;3.02;100.00;98065.63;4983170;28;20222;-83
2021/12/17 12:16:10;;;;;;;17.93;9.27;;;;;;;3.07;100.00;98059.84;4977736;28;20209;-81
2021/12/17 12:18:47;;;;;;;20.33;9.93;;;;;;;3.21;100.00;98070.13;4978386;28;20224;-82
2021/12/17 12:21:17;;;;;;;17.43;9.87;;;;;;;3.30;100.00;98058.59;4980999;28;20237;-82
2021/12/17 12:23:53;;;;;;;16.40;9.90;;;;;;;3.31;100.00;98055.78;4979846;28;20212;-82
2021/12/17 12:26:22;;;;;;;18.70;10.27;;;;;;;3.35;100.00;98054.47;4983646;28;20343;-81
2021/12/17 12:28:57;;;;;;;22.87;10.33;;;;;;;3.34;100.00;98066.16;4985454;28;20204;-82
2021/12/17 12:31:48;;;;;;;17.13;10.03;;;;;;;3.29;100.00;98067.56;4978350;28;20212;-82
2021/12/17 12:34:19;;;;;;;20.53;9.73;;;;;;;3.30;100.00;98069.25;4965831;28;20288;-82
2021/12/17 12:36:51;;;;;;;18.07;9.43;;;;;;;3.27;100.00;98069.53;4985479;28;20208;-82
2021/12/17 12:39:21;;;;;;;19.33;9.97;;;;;;;3.20;100.00;98066.59;4969908;28;20205;-82
2021/12/17 12:41:50;;;;;;;15.07;9.77;;;;;;;3.21;100.00;98064.78;4975368;28;20264;-81
2021/12/17 12:44:17;;;;;;;17.60;10.07;;;;;;;3.17;100.00;98060.69;4980832;28;20225;-84
2021/12/17 12:46:56;;;;;;;17.20;10.57;;;;;;;3.19;100.00;98064.06;4989675;28;20212;-81
2021/12/17 12:49:45;;;;;;;16.63;10.53;;;;;;;3.17;100.00;98066.88;4988713;28;20200;-82
2021/12/17 12:52:22;;;;;;;17.80;10.77;;;;;;;3.13;100.00;98064.66;4973116;28;20212;-81
2021/12/17 12:54:50;;;;;;;19.10;10.80;;;;;;;3.14;100.00;98061.00;4971367;28;20238;-82
2021/12/17 12:57:25;;;;;;;18.30;11.20;;;;;;;3.15;100.00;98057.34;4986223;28;20291;-80
2021/12/17 12:59:54;;;;;;;18.20;10.97;;;;;;;3.25;100.00;98067.00;4988904;28;20223;-81
2021/12/17 13:02:21;;;;;;;17.43;10.50;;;;;;;3.26;100.00;98065.19;4968178;28;20201;-82
2021/12/17 13:04:48;;;;;;;17.37;10.23;;;;;;;3.25;100.00;98063.50;4981693;28;20209;-82
2021/12/17 13:07:15;;;;;;;19.07;10.60;;;;;;;3.21;100.00;98060.28;4977496;28;20209;-81
2021/12/17 13:09:45;;;;;;;14.67;9.53;;;;;;;3.22;100.00;98066.47;4967190;28;20205;-81
2021/12/17 13:12:12;;;;;;;20.77;10.40;;;;;;;3.22;100.00;98077.16;4971008;28;20208;-82
2021/12/17 13:14:44;;;;;;;15.77;10.20;;;;;;;3.06;100.00;98069.72;4985725;28;20251;-82
2021/12/17 13:17:40;;;;;;;21.40;10.17;;;;;;;3.04;100.00;98067.19;4986176;28;20204;-82
2021/12/17 13:20:42;;;;;;;15.33;9.63;;;;;;;3.04;100.00;98066.34;4972829;28;20247;-81
2021/12/17 13:23:17;;;;;;;17.97;9.83;;;;;;;3.02;100.00;98066.47;4965831;28;20211;-82
2021/12/17 13:25:46;;;;;;;17.00;10.00;;;;;;;3.03;100.00;98070.81;4972488;28;20295;-82
2021/12/17 13:28:14;;;;;;;16.70;10.10;;;;;;;2.99;100.00;98065.91;4978428;28;20215;-82
2021/12/17 13:30:41;;;;;;;16.73;9.87;;;;;;;3.02;100.00;98074.47;4975519;28;20212;-83
2021/12/17 13:33:08;;;;;;;16.50;9.93;;;;;;;3.02;100.00;98074.47;4979420;28;20220;-81
2021/12/17 13:35:36;;;;;;;21.40;10.37;;;;;;;3.00;100.00;98071.09;4969919;28;20208;-82
2021/12/17 13:38:04;;;;;;;19.67;10.07;;;;;;;3.05;100.00;98073.38;4980950;28;20224;-82
2021/12/17 13:40:36;;;;;;;14.47;9.67;;;;;;;3.02;100.00;98063.81;4990209;28;20232;-82
2021/12/17 13:43:05;;;;;;;16.23;9.87;;;;;;;3.01;100.00;98075.47;4974464;28;20237;-82
2021/12/17 13:45:32;;;;;;;14.63;9.33;;;;;;;2.89;100.00;98073.91;4971305;28;20241;-82
2021/12/17 13:47:59;;;;;;;18.43;9.20;;;;;;;2.86;100.00;98078.69;4971681;28;20210;-82
2021/12/17 13:50:28;;;;;;;18.07;10.00;;;;;;;2.85;100.00;98077.84;4984257;28;20293;-83
2021/12/17 13:52:58;;;;;;;15.77;9.80;;;;;;;2.88;100.00;98071.41;4986138;28;20238;-81
2021/12/17 13:55:28;;;;;;;17.33;9.87;;;;;;;2.85;100.00;98069.84;4965166;28;20217;-82
2021/12/17 13:57:56;;;;;;;20.00;11.57;;;;;;;2.82;100.00;98072.78;4967934;28;20227;-82
2021/12/17 14:00:27;;;;;;;16.67;10.17;;;;;;;2.83;100.00;98074.47;4967317;28;20203;-83
2021/12/17 14:02:56;;;;;;;16.10;9.93;;;;;;;2.85;100.00;98080.50;4988598;28;20226;-82